createdAt,value
2023-08-02T03:32:49.770Z,96097.09
2023-08-02T03:35:16.969Z,96094.28
2023-08-02T03:37:44.022Z,96093.25
2023-08-02T03:40:11.537Z,96097.53
2023-08-02T03:42:38.560Z,96093.25
2023-08-02T03:45:06.052Z,96095.94
2023-08-02T03:47:33.195Z,96102.25
2023-08-02T03:50:00.534Z,96093.47
2023-08-02T03:52:27.642Z,96087.28
2023-08-02T03:54:54.783Z,96078.66
2023-08-02T03:57:21.826Z,96079.75
2023-08-02T03:59:48.917Z,96087.63
2023-08-02T04:02:15.959Z,96082.47
2023-08-02T04:04:44.465Z,96069.75
2023-08-02T04:07:11.617Z,96070.78
2023-08-02T04:09:38.731Z,96072.94
2023-08-02T04:12:06.311Z,96070.69
2023-08-02T04:14:33.596Z,96066.16
2023-08-02T04:17:00.628Z,96063.47
2023-08-02T04:19:27.741Z,96063.69
2023-08-02T04:21:54.779Z,96059.09
2023-08-02T04:24:21.866Z,96059.06
2023-08-02T04:26:49.238Z,96059.31
2023-08-02T04:29:16.330Z,96054.69
2023-08-02T04:31:43.556Z,96061.09
2023-08-02T04:34:10.833Z,96064.38
2023-08-02T04:36:37.882Z,96071.22
2023-08-02T04:39:05.138Z,96061.88
2023-08-02T04:41:32.227Z,96049.06
2023-08-02T04:43:59.326Z,96039.38
2023-08-02T04:46:26.857Z,96037.88
2023-08-02T04:48:54.303Z,96026.63
2023-08-02T04:51:21.341Z,96015.97
2023-08-02T04:53:51.470Z,96015.84
2023-08-02T04:56:18.745Z,96000.41
2023-08-02T04:58:45.870Z,95998.34
2023-08-02T05:01:13.129Z,95997.34
2023-08-02T05:03:40.274Z,95997.34
2023-08-02T05:06:07.446Z,96001.16
2023-08-02T05:08:36.445Z,95990.63
2023-08-02T05:11:06.990Z,95996.31
2023-08-02T05:13:34.345Z,95987.47
2023-08-02T05:16:01.584Z,95989.03
2023-08-02T05:18:28.782Z,95987.47
2023-08-02T05:20:55.867Z,95986.09
2023-08-02T05:23:23.193Z,95979.38
2023-08-02T05:25:50.266Z,95974.84
2023-08-02T05:28:17.360Z,95985.78
2023-08-02T05:30:44.390Z,95988.47
2023-08-02T05:33:11.458Z,95988.44
2023-08-02T05:35:38.568Z,95981.72
2023-08-02T05:38:05.773Z,95985.47
2023-08-02T05:40:33.436Z,95982.09
2023-08-02T05:43:00.502Z,95973.56
2023-08-02T05:45:27.584Z,95969.38
2023-08-02T05:47:54.715Z,95975.47
2023-08-02T05:50:21.855Z,95971.75
2023-08-02T05:52:49.186Z,95964.28
2023-08-02T05:55:16.617Z,95971.31
2023-08-02T05:57:43.790Z,95969.03
2023-08-02T06:00:11.335Z,95966.56
2023-08-02T06:02:39.855Z,95967.53
2023-08-02T06:05:07.301Z,95975.03
2023-08-02T06:07:34.829Z,95963.28
2023-08-02T06:10:01.966Z,95964.78
2023-08-02T06:12:29.285Z,95969.84
2023-08-02T06:14:56.370Z,95973.72
2023-08-02T06:17:23.622Z,95971.53
2023-08-02T06:19:50.701Z,95967.94
2023-08-02T06:22:17.913Z,95970.31
2023-08-02T06:24:45.238Z,95970.41
2023-08-02T06:27:12.324Z,95959.44
2023-08-02T06:29:39.473Z,95961.94
2023-08-02T06:32:06.969Z,95956.63
2023-08-02T06:34:34.361Z,95953.84
2023-08-02T06:37:01.456Z,95966.78
2023-08-02T06:39:28.510Z,95965.34
2023-08-02T06:41:55.653Z,95954.09
2023-08-02T06:44:23.178Z,95971.59
2023-08-02T06:46:50.373Z,95971.66
2023-08-02T06:49:18.465Z,95973.41
2023-08-02T06:51:45.859Z,95978.50
2023-08-02T06:54:13.559Z,95985.38
2023-08-02T06:56:40.935Z,95993.69
2023-08-02T06:59:07.977Z,95982.31
2023-08-02T07:01:35.023Z,95995.22
2023-08-02T07:04:02.356Z,95994.19
2023-08-02T07:06:29.522Z,95995.53
2023-08-02T07:08:57.905Z,95985.53
2023-08-02T07:11:35.856Z,95990.84
2023-08-02T07:14:04.691Z,95990.59
2023-08-02T07:16:31.834Z,95998.16
2023-08-02T07:19:01.507Z,95994.16
2023-08-02T07:21:28.611Z,95993.56
2023-08-02T07:23:55.888Z,95991.72
2023-08-02T07:26:23.978Z,95988.94
2023-08-02T07:28:51.009Z,95999.66
2023-08-02T07:31:18.138Z,96006.44
2023-08-02T07:33:46.535Z,95996.91
2023-08-02T07:36:15.394Z,96001.53
2023-08-02T07:38:42.924Z,95999.09
2023-08-02T07:41:10.201Z,96001.22
2023-08-02T07:43:37.508Z,95995.06
2023-08-02T07:46:04.713Z,95994.97
2023-08-02T07:48:32.023Z,96004.31
2023-08-02T07:51:04.180Z,96007.31
2023-08-02T07:53:31.306Z,96009.72
2023-08-02T07:56:04.908Z,96004.72
2023-08-02T07:58:32.069Z,95994.03
2023-08-02T08:01:05.648Z,95983.31
2023-08-02T08:03:32.705Z,95986.69
2023-08-02T08:05:59.790Z,95988.94
2023-08-02T08:08:26.875Z,95984.34
2023-08-02T08:10:54.007Z,95973.53
2023-08-02T08:13:22.052Z,95977.47
2023-08-02T08:15:49.234Z,95964.22
2023-08-02T08:18:16.525Z,95967.94
2023-08-02T08:20:43.659Z,95965.84
2023-08-02T08:23:10.847Z,95973.41
2023-08-02T08:25:37.958Z,95973.03
2023-08-02T08:28:05.326Z,95977.88
2023-08-02T08:30:32.406Z,95977.97
2023-08-02T08:32:59.580Z,95978.53
2023-08-02T08:35:26.676Z,95979.63
2023-08-02T08:37:54.347Z,95980.63
2023-08-02T08:40:21.728Z,95964.22
2023-08-02T08:42:52.687Z,95959.53
2023-08-02T08:45:22.558Z,95954.13
2023-08-02T08:47:50.174Z,95952.44
2023-08-02T08:50:18.471Z,95953.75
2023-08-02T08:52:47.434Z,95948.03
2023-08-02T08:55:15.820Z,95934.44
2023-08-02T08:57:43.760Z,95938.41
2023-08-02T09:00:11.495Z,95947.00
2023-08-02T09:02:40.074Z,95938.84
2023-08-02T09:05:07.684Z,95937.59
2023-08-02T09:07:35.015Z,95937.38
2023-08-02T09:10:03.340Z,95937.22
2023-08-02T09:12:32.276Z,95937.44
2023-08-02T09:15:04.153Z,95930.91
2023-08-02T09:17:50.525Z,95919.00
2023-08-02T09:20:21.684Z,95907.25
2023-08-02T09:22:48.872Z,95917.47
2023-08-02T09:25:22.775Z,95916.59
2023-08-02T09:27:50.236Z,95911.47
2023-08-02T09:30:28.413Z,95906.34
2023-08-02T09:33:08.811Z,95896.25
2023-08-02T09:35:49.241Z,95892.06
2023-08-02T09:38:17.623Z,95897.16
2023-08-02T09:41:26.319Z,95883.28
2023-08-02T09:43:35.722Z,95883.34
2023-08-02T09:46:03.010Z,95881.66
2023-08-02T09:48:37.187Z,95875.94
2023-08-02T09:51:05.092Z,95884.25
2023-08-02T09:53:32.434Z,95872.28
2023-08-02T09:56:00.084Z,95872.56
2023-08-02T09:58:27.806Z,95876.88
2023-08-02T10:00:54.910Z,95873.53
2023-08-02T10:03:26.317Z,95863.50
2023-08-02T10:05:54.349Z,95856.41
2023-08-02T10:08:21.404Z,95853.50
2023-08-02T10:10:49.359Z,95855.63
2023-08-02T10:13:21.157Z,95837.97
2023-08-02T10:15:50.380Z,95835.75
2023-08-02T10:18:18.231Z,95832.38
2023-08-02T10:20:47.271Z,95820.22
2023-08-02T10:23:14.489Z,95817.88
2023-08-02T10:25:41.772Z,95811.78
2023-08-02T10:28:09.090Z,95806.47
2023-08-02T10:30:36.190Z,95802.28
2023-08-02T10:33:16.389Z,95817.13
2023-08-02T10:36:03.849Z,95821.16
2023-08-02T10:38:40.300Z,95803.22
2023-08-02T10:41:09.785Z,95798.16
2023-08-02T10:44:06.293Z,95784.25
2023-08-02T10:46:34.377Z,95773.41
2023-08-02T10:49:10.700Z,95763.38
2023-08-02T10:51:42.299Z,95762.13
2023-08-02T10:54:23.520Z,95754.50
2023-08-02T10:56:53.667Z,95739.16
2023-08-02T10:59:23.646Z,95736.56
2023-08-02T11:01:56.816Z,95740.09
2023-08-02T11:04:24.586Z,95736.31
2023-08-02T11:06:51.907Z,95732.97
2023-08-02T11:09:19.524Z,95728.09
2023-08-02T11:11:48.096Z,95724.91
2023-08-02T11:14:29.365Z,95710.94
2023-08-02T11:16:56.940Z,95712.91
2023-08-02T11:19:25.700Z,95715.50
2023-08-02T11:21:56.914Z,95706.41
2023-08-02T11:24:27.761Z,95718.63
2023-08-02T11:26:58.281Z,95698.97
2023-08-02T11:29:25.601Z,95702.56
2023-08-02T11:31:55.924Z,95699.13
2023-08-02T11:34:24.548Z,95685.41
2023-08-02T11:36:51.755Z,95681.00
2023-08-02T11:39:19.738Z,95692.31
2023-08-02T11:41:47.907Z,95676.78
2023-08-02T11:44:18.776Z,95687.59
2023-08-02T11:46:53.613Z,95680.44
2023-08-02T11:49:20.745Z,95668.81
2023-08-02T11:51:47.768Z,95665.13
2023-08-02T11:54:15.652Z,95663.19
2023-08-02T11:56:43.126Z,95662.19
2023-08-02T11:59:11.246Z,95653.66
2023-08-02T12:01:46.622Z,95639.91
2023-08-02T12:04:13.922Z,95626.88
2023-08-02T12:06:53.475Z,95620.34
2023-08-02T12:09:21.083Z,95627.38
2023-08-02T12:11:53.372Z,95623.47
2023-08-02T12:14:30.381Z,95616.88
2023-08-02T12:16:57.674Z,95612.94
2023-08-02T12:19:40.969Z,95595.69
2023-08-02T12:22:08.153Z,95602.59
2023-08-02T12:24:35.218Z,95613.66
2023-08-02T12:27:17.802Z,95601.28
2023-08-02T12:29:45.606Z,95596.94
2023-08-02T12:32:27.417Z,95593.94
2023-08-02T12:35:01.798Z,95587.69
2023-08-02T12:37:37.498Z,95579.44
2023-08-02T12:40:06.165Z,95570.59
2023-08-02T12:42:34.365Z,95567.41
2023-08-02T12:47:33.090Z,95555.25
2023-08-02T12:50:00.256Z,95554.59
2023-08-02T12:52:27.365Z,95545.53
2023-08-02T12:54:54.586Z,95542.72
2023-08-02T12:57:21.645Z,95544.50
2023-08-02T12:59:48.689Z,95543.91
2023-08-02T13:02:15.726Z,95555.22
2023-08-02T13:04:42.822Z,95547.69
2023-08-02T13:07:10.134Z,95534.94
2023-08-02T13:09:39.805Z,95542.81
2023-08-02T13:12:08.742Z,95539.75
2023-08-02T13:14:36.273Z,95539.66
2023-08-02T13:17:03.526Z,95527.13
2023-08-02T13:19:30.644Z,95531.53
2023-08-02T13:21:57.742Z,95522.75
2023-08-02T13:24:24.805Z,95524.28
2023-08-02T13:26:51.925Z,95517.09
2023-08-02T13:29:20.227Z,95510.91
2023-08-02T13:31:49.161Z,95510.16
2023-08-02T13:34:17.268Z,95503.16
2023-08-02T13:36:44.599Z,95498.47
2023-08-02T13:39:12.556Z,95497.78
2023-08-02T13:41:39.687Z,95494.97
2023-08-02T13:44:07.130Z,95477.47
2023-08-02T13:46:34.251Z,95478.28
2023-08-02T13:49:01.820Z,95465.06
2023-08-02T13:51:29.326Z,95454.19
2023-08-02T13:53:56.367Z,95457.59
2023-08-02T13:56:23.516Z,95448.66
2023-08-02T13:58:50.569Z,95438.63
2023-08-02T14:01:17.706Z,95431.22
2023-08-02T14:03:44.792Z,95427.28
2023-08-02T14:06:11.978Z,95419.47
2023-08-02T14:08:39.212Z,95414.13
2023-08-02T14:11:06.353Z,95420.66
2023-08-02T14:13:33.423Z,95423.00
2023-08-02T14:16:00.898Z,95415.88
2023-08-02T14:18:28.009Z,95403.50
2023-08-02T14:20:55.124Z,95409.91
2023-08-02T14:23:25.000Z,95388.19
2023-08-02T14:25:52.648Z,95403.59
2023-08-02T14:28:19.744Z,95388.28
2023-08-02T14:30:47.373Z,95384.00
2023-08-02T14:33:14.550Z,95376.78
2023-08-02T14:35:41.901Z,95373.31
2023-08-02T14:38:09.006Z,95373.56
2023-08-02T14:40:36.170Z,95366.47
2023-08-02T14:43:04.258Z,95378.44
2023-08-02T14:45:31.669Z,95363.66
2023-08-02T14:47:58.810Z,95357.88
2023-08-02T14:50:27.848Z,95364.19
2023-08-02T14:52:55.259Z,95360.59
2023-08-02T14:55:22.386Z,95360.78
2023-08-02T14:57:49.464Z,95365.75
2023-08-02T15:00:16.883Z,95367.44
2023-08-02T15:02:44.028Z,95370.25
2023-08-02T15:05:11.372Z,95364.13
2023-08-02T15:07:38.431Z,95360.53
2023-08-02T15:10:06.004Z,95356.53
2023-08-02T15:12:33.105Z,95352.88
2023-08-02T15:15:00.314Z,95357.88
2023-08-02T15:17:27.370Z,95358.06
2023-08-02T15:19:54.524Z,95358.34
2023-08-02T15:22:21.580Z,95350.00
2023-08-02T15:24:48.678Z,95341.31
2023-08-02T15:27:15.773Z,95336.06
2023-08-02T15:29:42.850Z,95330.81
2023-08-02T15:32:09.904Z,95312.06
2023-08-02T15:34:37.006Z,95315.03
2023-08-02T15:37:04.348Z,95322.84
2023-08-02T15:39:31.631Z,95325.06
2023-08-02T15:41:58.788Z,95321.97
2023-08-02T15:44:26.059Z,95310.72
2023-08-02T15:46:53.335Z,95314.28
2023-08-02T15:49:20.518Z,95315.16
2023-08-02T15:51:47.670Z,95309.31
2023-08-02T15:54:16.529Z,95309.94
2023-08-02T15:56:45.389Z,95305.41
2023-08-02T15:59:12.976Z,95302.84
2023-08-02T16:01:40.214Z,95295.72
2023-08-02T16:04:07.371Z,95301.09
2023-08-02T16:06:34.544Z,95290.41
2023-08-02T16:09:04.387Z,95288.66
2023-08-02T16:11:31.611Z,95283.91
2023-08-02T16:13:58.849Z,95288.00
2023-08-02T16:16:26.118Z,95293.16
2023-08-02T16:18:53.486Z,95301.34
2023-08-02T16:21:20.833Z,95279.88
2023-08-02T16:23:48.453Z,95292.13
2023-08-02T16:26:15.723Z,95280.97
2023-08-02T16:28:42.871Z,95274.25
2023-08-02T16:31:10.044Z,95290.69
2023-08-02T16:33:37.125Z,95282.94
2023-08-02T16:36:04.360Z,95284.91
2023-08-02T16:38:31.562Z,95265.09
2023-08-02T16:40:58.802Z,95284.47
2023-08-02T16:43:25.922Z,95277.19
2023-08-02T16:45:53.067Z,95290.38
2023-08-02T16:48:20.185Z,95300.75
2023-08-02T16:50:47.268Z,95278.38
2023-08-02T16:53:14.376Z,95261.16
2023-08-02T16:55:41.560Z,95235.56
2023-08-02T16:58:08.647Z,95239.41
2023-08-02T17:00:35.736Z,95242.53
2023-08-02T17:03:02.986Z,95243.50
2023-08-02T17:05:31.768Z,95248.75
2023-08-02T17:07:59.098Z,95255.44
2023-08-02T17:10:26.505Z,95253.84
2023-08-02T17:12:54.004Z,95253.63
2023-08-02T17:15:21.455Z,95268.41
2023-08-02T17:17:48.634Z,95269.16
2023-08-02T17:20:15.872Z,95261.97
2023-08-02T17:22:42.924Z,95269.47
2023-08-02T17:25:10.079Z,95276.78
2023-08-02T17:27:37.228Z,95263.38
2023-08-02T17:30:04.599Z,95268.53
2023-08-02T17:32:31.748Z,95276.22
2023-08-02T17:34:58.883Z,95282.28
2023-08-02T17:37:26.178Z,95279.63
2023-08-02T17:39:55.756Z,95270.91
2023-08-02T17:42:22.912Z,95263.84
2023-08-02T17:44:49.973Z,95271.53
2023-08-02T17:47:16.998Z,95256.63
2023-08-02T17:49:44.067Z,95260.56
2023-08-02T17:52:11.091Z,95253.75
2023-08-02T17:54:38.164Z,95242.03
2023-08-02T17:57:05.478Z,95234.19
2023-08-02T17:59:32.659Z,95241.31
2023-08-02T18:01:59.748Z,95249.94
2023-08-02T18:04:26.936Z,95260.59
2023-08-02T18:06:54.004Z,95262.03
2023-08-02T18:09:21.125Z,95258.88
2023-08-02T18:11:48.178Z,95255.09
2023-08-02T18:14:15.604Z,95262.78
2023-08-02T18:16:42.733Z,95282.31
2023-08-02T18:19:09.952Z,95281.63
2023-08-02T18:21:36.995Z,95290.19
2023-08-02T18:24:04.221Z,95302.22
2023-08-02T18:26:31.266Z,95263.00
2023-08-02T18:28:58.587Z,95234.94
2023-08-02T18:31:25.660Z,95236.78
2023-08-02T18:33:52.821Z,95247.13
2023-08-02T18:36:19.977Z,95252.34
2023-08-02T18:38:47.042Z,95244.91
2023-08-02T18:41:18.719Z,95235.03
2023-08-02T18:43:48.200Z,95229.84
2023-08-02T18:46:19.550Z,95239.25
2023-08-02T18:48:49.460Z,95237.88
2023-08-02T18:51:18.162Z,95244.03
2023-08-02T18:53:48.780Z,95237.25
2023-08-02T18:56:19.865Z,95231.28
2023-08-02T18:58:48.971Z,95252.09
2023-08-02T19:01:16.678Z,95252.03
2023-08-02T19:03:43.921Z,95263.34
2023-08-02T19:06:11.173Z,95264.81
2023-08-02T19:08:43.890Z,95268.25
2023-08-02T19:11:23.579Z,95282.97
2023-08-02T19:13:51.425Z,95274.59
2023-08-02T19:16:18.569Z,95286.03
2023-08-02T19:18:45.862Z,95287.44
2023-08-02T19:21:14.473Z,95291.38
2023-08-02T19:23:43.809Z,95295.63
2023-08-02T19:26:16.804Z,95303.75
2023-08-02T19:28:44.229Z,95308.22
2023-08-02T19:31:11.333Z,95308.63
2023-08-02T19:33:41.465Z,95316.56
2023-08-02T19:36:08.505Z,95316.47
2023-08-02T19:38:35.586Z,95315.72
2023-08-02T19:41:02.626Z,95319.28
2023-08-02T19:43:29.743Z,95331.19
2023-08-02T19:45:57.423Z,95321.56
2023-08-02T19:48:25.348Z,95327.69
2023-08-02T19:50:52.523Z,95332.66
2023-08-02T19:53:19.676Z,95335.72
2023-08-02T19:55:46.814Z,95349.34
2023-08-02T19:58:16.339Z,95388.22
2023-08-02T20:00:54.737Z,95445.47
2023-08-02T20:03:23.621Z,95477.34
2023-08-02T20:06:02.380Z,95488.75
2023-08-02T20:08:33.814Z,95464.72
2023-08-02T20:11:00.839Z,95478.09
2023-08-02T20:13:33.087Z,95472.19
2023-08-02T20:16:01.241Z,95479.16
2023-08-02T20:18:28.337Z,95473.19
2023-08-02T20:20:57.458Z,95474.31
2023-08-02T20:23:25.993Z,95488.22
2023-08-02T20:25:54.791Z,95505.31
2023-08-02T20:28:21.927Z,95503.84
2023-08-02T20:30:52.298Z,95502.34
2023-08-02T20:33:20.977Z,95534.28
2023-08-02T20:35:48.227Z,95552.97
2023-08-02T20:38:16.672Z,95578.28
2023-08-02T20:40:44.136Z,95616.31
2023-08-02T20:43:13.551Z,95633.91
2023-08-02T20:45:44.953Z,95655.56
2023-08-02T20:48:12.407Z,95660.28
2023-08-02T20:50:46.284Z,95641.28
2023-08-02T20:53:15.216Z,95683.09
2023-08-02T20:55:45.341Z,95658.41
2023-08-02T20:58:20.903Z,95648.53
2023-08-02T21:00:55.790Z,95642.84
2023-08-02T21:03:23.298Z,95675.34
2023-08-02T21:05:50.554Z,95689.25
2023-08-02T21:08:17.591Z,95683.84
2023-08-02T21:10:44.798Z,95714.59
2023-08-02T21:13:11.881Z,95719.53
2023-08-02T21:15:39.109Z,95662.91
2023-08-02T21:18:06.410Z,95653.53
2023-08-02T21:20:39.327Z,95604.16
2023-08-02T21:23:10.628Z,95587.84
2023-08-02T21:25:39.147Z,95601.25
2023-08-02T21:28:15.069Z,95579.81
2023-08-02T21:30:43.277Z,95570.66
2023-08-02T21:33:11.294Z,95551.81
2023-08-02T21:35:51.540Z,95554.94
2023-08-02T21:38:23.575Z,95547.69
2023-08-02T21:40:54.628Z,95551.91
2023-08-02T21:43:22.934Z,95557.34
2023-08-02T21:46:01.108Z,95564.47
2023-08-02T21:48:28.686Z,95572.25
2023-08-02T21:50:55.971Z,95564.75
2023-08-02T21:53:24.676Z,95561.31
2023-08-02T21:55:59.629Z,95551.94
2023-08-02T21:58:36.112Z,95560.28
